sensor_id;sensor_type;location;lat;lon;timestamp;pressure;altitude;pressure_sealevel;temperature;humidity
77517;BME280;68414;53.946;27.634;2024-03-17T00:00:29;98651.140625;;;9.500000;64.559570
77517;BME280;68414;53.946;27.634;2024-03-17T00:01:29;98644.984375;;;9.500000;64.469727
77517;BME280;68414;53.946;27.634;2024-03-17T00:02:29;98642.406250;;;9.450000;64.172852
77517;BME280;68414;53.946;27.634;2024-03-17T00:03:29;98645.796875;;;9.360000;64.693359
77517;BME280;68414;53.946;27.634;2024-03-17T00:04:29;98638.445312;;;9.420000;64.956055
77517;BME280;68414;53.946;27.634;2024-03-17T00:05:29;98644.796875;;;9.460000;64.453125
77517;BME280;68414;53.946;27.634;2024-03-17T00:06:29;98639.531250;;;9.410000;64.766602
77517;BME280;68414;53.946;27.634;2024-03-17T00:07:29;98634.476562;;;9.390000;64.886719
77517;BME280;68414;53.946;27.634;2024-03-17T00:08:29;98636.750000;;;9.460000;64.752930
77517;BME280;68414;53.946;27.634;2024-03-17T00:09:29;98638.828125;;;9.490000;64.523438
77517;BME280;68414;53.946;27.634;2024-03-17T00:10:29;98641.015625;;;9.470000;64.166016
77517;BME280;68414;53.946;27.634;2024-03-17T00:11:29;98636.140625;;;9.490000;64.912109
77517;BME280;68414;53.946;27.634;2024-03-17T00:12:29;98639.015625;;;9.530000;64.750977
77517;BME280;68414;53.946;27.634;2024-03-17T00:13:29;98633.351562;;;9.540000;64.476562
77517;BME280;68414;53.946;27.634;2024-03-17T00:14:29;98635.570312;;;9.380000;65.163086
77517;BME280;68414;53.946;27.634;2024-03-17T00:15:29;98633.687500;;;9.390000;65.107422
77517;BME280;68414;53.946;27.634;2024-03-17T00:16:29;98626.625000;;;9.430000;64.803711
77517;BME280;68414;53.946;27.634;2024-03-17T00:17:29;98630.500000;;;9.370000;64.661133
77517;BME280;68414;53.946;27.634;2024-03-17T00:18:29;98630.203125;;;9.380000;65.140625
77517;BME280;68414;53.946;27.634;2024-03-17T00:19:29;98629.304688;;;9.430000;65.335938
77517;BME280;68414;53.946;27.634;2024-03-17T00:20:29;98634.562500;;;9.480000;65.055664
77517;BME280;68414;53.946;27.634;2024-03-17T00:21:29;98624.921875;;;9.470000;64.753906
77517;BME280;68414;53.946;27.634;2024-03-17T00:22:29;98628.890625;;;9.500000;64.525391
77517;BME280;68414;53.946;27.634;2024-03-17T00:23:29;98623.335938;;;9.460000;64.863281
77517;BME280;68414;53.946;27.634;2024-03-17T00:24:29;98627.304688;;;9.490000;64.867188
77517;BME280;68414;53.946;27.634;2024-03-17T00:25:29;98622.921875;;;9.530000;64.806641
77517;BME280;68414;53.946;27.634;2024-03-17T00:26:29;98622.132812;;;9.520000;64.672852
77517;BME280;68414;53.946;27.634;2024-03-17T00:27:29;98620.734375;;;9.550000;64.744141
77517;BME280;68414;53.946;27.634;2024-03-17T00:28:29;98626.515625;;;9.480000;64.579102
77517;BME280;68414;53.946;27.634;2024-03-17T00:29:29;98613.406250;;;9.470000;64.774414
77517;BME280;68414;53.946;27.634;2024-03-17T00:30:29;98616.085938;;;9.470000;64.819336
77517;BME280;68414;53.946;27.634;2024-03-17T00:31:29;98615.781250;;;9.480000;64.790039
77517;BME280;68414;53.946;27.634;2024-03-17T00:32:29;98616.500000;;;9.400000;65.175781
77517;BME280;68414;53.946;27.634;2024-03-17T00:33:29;98616.140625;;;9.330000;65.209961
77517;BME280;68414;53.946;27.634;2024-03-17T00:34:29;98606.515625;;;9.320000;65.119141
77517;BME280;68414;53.946;27.634;2024-03-17T00:35:29;98617.343750;;;9.270000;65.788086
77517;BME280;68414;53.946;27.634;2024-03-17T00:36:29;98614.359375;;;9.280000;65.757812
77517;BME280;68414;53.946;27.634;2024-03-17T00:37:29;98610.781250;;;9.330000;65.808594
77517;BME280;68414;53.946;27.634;2024-03-17T00:38:29;98612.828125;;;9.360000;65.380859
77517;BME280;68414;53.946;27.634;2024-03-17T00:39:29;98619.179688;;;9.400000;65.596680
77517;BME280;68414;53.946;27.634;2024-03-17T00:40:29;98611.929688;;;9.400000;65.232422
77517;BME280;68414;53.946;27.634;2024-03-17T00:41:29;98609.687500;;;9.340000;65.354492
77517;BME280;68414;53.946;27.634;2024-03-17T00:42:29;98607.796875;;;9.340000;65.622070
77517;BME280;68414;53.946;27.634;2024-03-17T00:43:29;98607.796875;;;9.340000;65.455078
77517;BME280;68414;53.946;27.634;2024-03-17T00:44:29;98614.421875;;;9.370000;65.437500
77517;BME280;68414;53.946;27.634;2024-03-17T00:45:29;98609.546875;;;9.390000;65.063477
77517;BME280;68414;53.946;27.634;2024-03-17T00:46:29;98603.828125;;;9.320000;65.850586
77517;BME280;68414;53.946;27.634;2024-03-17T00:47:29;98605.531250;;;9.280000;65.955078
77517;BME280;68414;53.946;27.634;2024-03-17T00:48:31;98600.953125;;;9.280000;65.957031
77517;BME280;68414;53.946;27.634;2024-03-17T00:49:29;98599.585938;;;9.170000;66.669922
77517;BME280;68414;53.946;27.634;2024-03-17T00:50:29;98598.085938;;;9.250000;66.704102
77517;BME280;68414;53.946;27.634;2024-03-17T00:51:29;98605.734375;;;9.180000;66.272461
77517;BME280;68414;53.946;27.634;2024-03-17T00:52:29;98599.968750;;;9.240000;66.537109
77517;BME280;68414;53.946;27.634;2024-03-17T00:53:29;98604.132812;;;9.300000;66.203125
77517;BME280;68414;53.946;27.634;2024-03-17T00:54:29;98603.828125;;;9.320000;65.728516
77517;BME280;68414;53.946;27.634;2024-03-17T00:55:29;98607.906250;;;9.290000;66.521484
77517;BME280;68414;53.946;27.634;2024-03-17T00:56:29;98604.328125;;;9.340000;66.374023
77517;BME280;68414;53.946;27.634;2024-03-17T00:57:29;98603.687500;;;9.370000;66.212891
77517;BME280;68414;53.946;27.634;2024-03-17T00:58:29;98607.359375;;;9.410000;65.897461
77517;BME280;68414;53.946;27.634;2024-03-17T00:59:29;98600.710938;;;9.380000;65.428711
77517;BME280;68414;53.946;27.634;2024-03-17T01:00:29;98598.765625;;;9.300000;66.335938
77517;BME280;68414;53.946;27.634;2024-03-17T01:01:29;98602.242188;;;9.310000;66.437500
77517;BME280;68414;53.946;27.634;2024-03-17T01:02:29;98593.601562;;;9.340000;66.506836
77517;BME280;68414;53.946;27.634;2024-03-17T01:03:29;98599.921875;;;9.380000;66.447266
77517;BME280;68414;53.946;27.634;2024-03-17T01:04:29;98601.500000;;;9.390000;66.393555
77517;BME280;68414;53.946;27.634;2024-03-17T01:05:29;98587.937500;;;9.350000;66.587891
77517;BME280;68414;53.946;27.634;2024-03-17T01:06:29;98586.648438;;;9.330000;66.506836
77517;BME280;68414;53.946;27.634;2024-03-17T01:07:29;98594.859375;;;9.360000;66.577148
77517;BME280;68414;53.946;27.634;2024-03-17T01:08:29;98590.421875;;;9.320000;66.205078
77517;BME280;68414;53.946;27.634;2024-03-17T01:09:29;98600.843750;;;9.330000;66.562500
77517;BME280;68414;53.946;27.634;2024-03-17T01:10:29;98592.617188;;;9.300000;66.822266
77517;BME280;68414;53.946;27.634;2024-03-17T01:11:29;98588.648438;;;9.270000;66.984375
77517;BME280;68414;53.946;27.634;2024-03-17T01:12:29;98597.593750;;;9.230000;67.089844
77517;BME280;68414;53.946;27.634;2024-03-17T01:13:29;98593.328125;;;9.220000;66.466797
77517;BME280;68414;53.946;27.634;2024-03-17T01:14:29;98592.531250;;;9.210000;66.776367
77517;BME280;68414;53.946;27.634;2024-03-17T01:15:29;98598.578125;;;9.270000;66.729492
77517;BME280;68414;53.946;27.634;2024-03-17T01:16:29;98586.156250;;;9.310000;66.614258
77517;BME280;68414;53.946;27.634;2024-03-17T01:17:30;98590.421875;;;9.320000;66.614258
77517;BME280;68414;53.946;27.634;2024-03-17T01:18:29;98592.421875;;;9.260000;66.517578
77517;BME280;68414;53.946;27.634;2024-03-17T01:19:29;98589.632812;;;9.310000;66.825195
77517;BME280;68414;53.946;27.634;2024-03-17T01:20:29;98587.250000;;;9.300000;66.700195
77517;BME280;68414;53.946;27.634;2024-03-17T01:21:29;98582.687500;;;9.300000;66.679688
77517;BME280;68414;53.946;27.634;2024-03-17T01:22:29;98585.062500;;;9.320000;66.647461
77517;BME280;68414;53.946;27.634;2024-03-17T01:23:29;98581.203125;;;9.240000;66.791992
77517;BME280;68414;53.946;27.634;2024-03-17T01:24:29;98587.359375;;;9.250000;67.192383
77517;BME280;68414;53.946;27.634;2024-03-17T01:25:29;98577.546875;;;9.200000;67.240234
77517;BME280;68414;53.946;27.634;2024-03-17T01:26:29;98579.531250;;;9.150000;67.208008
77517;BME280;68414;53.946;27.634;2024-03-17T01:27:29;98575.187500;;;9.050000;67.271484
77517;BME280;68414;53.946;27.634;2024-03-17T01:28:29;98576.171875;;;9.090000;67.752930
77517;BME280;68414;53.946;27.634;2024-03-17T01:29:29;98579.531250;;;9.150000;67.164062
77517;BME280;68414;53.946;27.634;2024-03-17T01:30:29;98580.828125;;;9.170000;67.079102
77517;BME280;68414;53.946;27.634;2024-03-17T01:31:29;98577.953125;;;9.140000;67.682617
77517;BME280;68414;53.946;27.634;2024-03-17T01:32:29;98576.960938;;;9.100000;67.765625
77517;BME280;68414;53.946;27.634;2024-03-17T01:33:29;98574.968750;;;9.150000;67.585938
77517;BME280;68414;53.946;27.634;2024-03-17T01:34:29;98581.921875;;;9.160000;67.088867
77517;BME280;68414;53.946;27.634;2024-03-17T01:35:29;98571.195312;;;9.160000;67.542969
77517;BME280;68414;53.946;27.634;2024-03-17T01:36:29;98567.718750;;;9.160000;67.454102
77517;BME280;68414;53.946;27.634;2024-03-17T01:37:29;98575.656250;;;9.210000;67.407227
77517;BME280;68414;53.946;27.634;2024-03-17T01:38:29;98576.750000;;;9.200000;67.449219
77517;BME280;68414;53.946;27.634;2024-03-17T01:39:29;98567.125000;;;9.190000;67.336914
77517;BME280;68414;53.946;27.634;2024-03-17T01:40:29;98571.000000;;;9.130000;67.725586
77517;BME280;68414;53.946;27.634;2024-03-17T01:41:29;98572.390625;;;9.100000;67.512695
77517;BME280;68414;53.946;27.634;2024-03-17T01:42:29;98573.078125;;;9.160000;67.764648
77517;BME280;68414;53.946;27.634;2024-03-17T01:43:29;98561.562500;;;9.150000;67.430664
77517;BME280;68414;53.946;27.634;2024-03-17T01:44:29;98564.437500;;;9.190000;67.380859
77517;BME280;68414;53.946;27.634;2024-03-17T01:45:30;98570.406250;;;9.160000;66.978516
77517;BME280;68414;53.946;27.634;2024-03-17T01:46:29;98565.937500;;;9.110000;67.436523
77517;BME280;68414;53.946;27.634;2024-03-17T01:47:29;98568.429688;;;9.070000;67.806641
77517;BME280;68414;53.946;27.634;2024-03-17T01:48:29;98564.156250;;;9.060000;67.958984
77517;BME280;68414;53.946;27.634;2024-03-17T01:49:29;98569.906250;;;9.140000;67.616211
77517;BME280;68414;53.946;27.634;2024-03-17T01:51:29;98568.734375;;;9.060000;67.605469
77517;BME280;68414;53.946;27.634;2024-03-17T01:52:29;98563.859375;;;9.080000;67.507812
77517;BME280;68414;53.946;27.634;2024-03-17T01:53:29;98565.250000;;;9.050000;67.738281
77517;BME280;68414;53.946;27.634;2024-03-17T01:54:29;98571.000000;;;9.130000;67.437500
77517;BME280;68414;53.946;27.634;2024-03-17T01:55:29;98573.078125;;;9.160000;67.576172
77517;BME280;68414;53.946;27.634;2024-03-17T01:56:29;98570.296875;;;9.210000;67.164062
77517;BME280;68414;53.946;27.634;2024-03-17T01:57:29;98574.367188;;;9.180000;67.181641
77517;BME280;68414;53.946;27.634;2024-03-17T01:58:33;98567.609375;;;9.210000;67.208008
77517;BME280;68414;53.946;27.634;2024-03-17T01:59:30;98564.625000;;;9.220000;66.811523
77517;BME280;68414;53.946;27.634;2024-03-17T02:00:29;98568.109375;;;9.230000;67.333008
77517;BME280;68414;53.946;27.634;2024-03-17T02:01:29;98569.796875;;;9.190000;67.270508
77517;BME280;68414;53.946;27.634;2024-03-17T02:02:29;98569.007812;;;9.180000;67.647461
77517;BME280;68414;53.946;27.634;2024-03-17T02:03:29;98564.031250;;;9.250000;67.114258
77517;BME280;68414;53.946;27.634;2024-03-17T02:04:29;98560.968750;;;9.180000;66.905273
77517;BME280;68414;53.946;27.634;2024-03-17T02:05:29;98562.851562;;;9.180000;67.446289
77517;BME280;68414;53.946;27.634;2024-03-17T02:06:29;98564.328125;;;9.240000;66.922852
77517;BME280;68414;53.946;27.634;2024-03-17T02:07:30;98566.218750;;;9.230000;66.934570
77517;BME280;68414;53.946;27.634;2024-03-17T02:08:29;98561.648438;;;9.240000;67.155273
77517;BME280;68414;53.946;27.634;2024-03-17T02:09:29;98567.203125;;;9.270000;67.039062
77517;BME280;68414;53.946;27.634;2024-03-17T02:10:29;98556.289062;;;9.240000;67.133789
77517;BME280;68414;53.946;27.634;2024-03-17T02:11:30;98557.492188;;;9.180000;67.634766
77517;BME280;68414;53.946;27.634;2024-03-17T02:12:29;98572.859375;;;9.260000;67.292969
77517;BME280;68414;53.946;27.634;2024-03-17T02:13:30;98563.421875;;;9.280000;66.942383
77517;BME280;68414;53.946;27.634;2024-03-17T02:14:29;98568.000000;;;9.280000;66.786133
77517;BME280;68414;53.946;27.634;2024-03-17T02:15:29;98563.234375;;;9.250000;66.759766
77517;BME280;68414;53.946;27.634;2024-03-17T02:16:29;98556.171875;;;9.290000;67.120117
77517;BME280;68414;53.946;27.634;2024-03-17T02:17:29;98559.679688;;;9.160000;67.410156
77517;BME280;68414;53.946;27.634;2024-03-17T02:18:30;98557.492188;;;9.180000;67.446289
77517;BME280;68414;53.946;27.634;2024-03-17T02:19:29;98552.320312;;;9.210000;67.274414
77517;BME280;68414;53.946;27.634;2024-03-17T02:20:29;98550.734375;;;9.200000;66.630859
77517;BME280;68414;53.946;27.634;2024-03-17T02:21:29;98549.335938;;;9.230000;67.488281
77517;BME280;68414;53.946;27.634;2024-03-17T02:22:29;98553.304688;;;9.250000;67.003906
77517;BME280;68414;53.946;27.634;2024-03-17T02:23:29;98558.476562;;;9.220000;67.496094
77517;BME280;68414;53.946;27.634;2024-03-17T02:24:29;98555.304688;;;9.200000;67.227539
77517;BME280;68414;53.946;27.634;2024-03-17T02:25:29;98555.414062;;;9.150000;67.717773
77517;BME280;68414;53.946;27.634;2024-03-17T02:26:29;98554.015625;;;9.170000;67.533203
77517;BME280;68414;53.946;27.634;2024-03-17T02:27:29;98552.132812;;;9.180000;67.423828
77517;BME280;68414;53.946;27.634;2024-03-17T02:28:29;98546.390625;;;9.110000;67.158203
77517;BME280;68414;53.946;27.634;2024-03-17T02:29:29;98544.796875;;;9.100000;67.854492
77517;BME280;68414;53.946;27.634;2024-03-17T02:30:29;98539.140625;;;9.110000;67.502930
77517;BME280;68414;53.946;27.634;2024-03-17T02:31:29;98549.562500;;;9.130000;67.094727
77517;BME280;68414;53.946;27.634;2024-03-17T02:32:29;98548.953125;;;9.160000;67.553711
77517;BME280;68414;53.946;27.634;2024-03-17T02:33:29;98542.500000;;;9.170000;67.642578
77517;BME280;68414;53.946;27.634;2024-03-17T02:34:29;98545.187500;;;9.170000;67.011719
77517;BME280;68414;53.946;27.634;2024-03-17T02:35:31;98547.484375;;;9.100000;68.174805
77517;BME280;68414;53.946;27.634;2024-03-17T02:36:29;98538.343750;;;9.110000;67.789062
77517;BME280;68414;53.946;27.634;2024-03-17T02:37:29;98544.203125;;;9.130000;68.068359
77517;BME280;68414;53.946;27.634;2024-03-17T02:38:29;98546.578125;;;9.140000;67.695312
77517;BME280;68414;53.946;27.634;2024-03-17T02:39:29;98542.203125;;;9.180000;67.834961
77517;BME280;68414;53.946;27.634;2024-03-17T02:40:29;98538.843750;;;9.130000;67.991211
77517;BME280;68414;53.946;27.634;2024-03-17T02:41:29;98535.562500;;;9.160000;67.941406
77517;BME280;68414;53.946;27.634;2024-03-17T02:42:29;98538.234375;;;9.160000;67.088867
77517;BME280;68414;53.946;27.634;2024-03-17T02:43:29;98523.960938;;;9.060000;67.771484
77517;BME280;68414;53.946;27.634;2024-03-17T02:45:29;98524.453125;;;9.080000;68.383789
77517;BME280;68414;53.946;27.634;2024-03-17T02:46:29;98526.906250;;;9.190000;68.000977
77517;BME280;68414;53.946;27.634;2024-03-17T02:47:29;98533.859375;;;9.200000;67.459961
77517;BME280;68414;53.946;27.634;2024-03-17T02:48:29;98384.296875;;;8.270000;67.680664
77517;BME280;68414;53.946;27.634;2024-03-17T02:49:29;98537.140625;;;9.170000;67.621094
77517;BME280;68414;53.946;27.634;2024-03-17T02:50:29;98532.046875;;;9.290000;67.296875
77517;BME280;68414;53.946;27.634;2024-03-17T02:51:29;98529.062500;;;9.300000;67.432617
77517;BME280;68414;53.946;27.634;2024-03-17T02:52:29;98538.312500;;;9.240000;66.979492
77517;BME280;68414;53.946;27.634;2024-03-17T02:53:29;98536.421875;;;9.250000;67.667969
77517;BME280;68414;53.946;27.634;2024-03-17T02:54:29;98536.539062;;;9.200000;67.349609
77517;BME280;68414;53.946;27.634;2024-03-17T02:55:29;98527.921875;;;9.090000;67.897461
77517;BME280;68414;53.946;27.634;2024-03-17T02:56:29;98533.234375;;;9.000000;68.547852
77517;BME280;68414;53.946;27.634;2024-03-17T02:57:29;98534.328125;;;8.990000;68.889648
77517;BME280;68414;53.946;27.634;2024-03-17T02:58:29;98533.703125;;;9.020000;68.739258
77517;BME280;68414;53.946;27.634;2024-03-17T02:59:29;98537.359375;;;9.060000;68.722656
77517;BME280;68414;53.946;27.634;2024-03-17T03:00:29;98534.078125;;;9.100000;68.330078
77517;BME280;68414;53.946;27.634;2024-03-17T03:01:29;98536.343750;;;9.160000;68.207031
77517;BME280;68414;53.946;27.634;2024-03-17T03:02:29;98531.484375;;;9.180000;68.278320
77517;BME280;68414;53.946;27.634;2024-03-17T03:03:29;98537.328125;;;9.200000;67.539062
77517;BME280;68414;53.946;27.634;2024-03-17T03:04:29;98531.289062;;;9.150000;67.950195
77517;BME280;68414;53.946;27.634;2024-03-17T03:05:30;98532.875000;;;9.160000;68.295898
77517;BME280;68414;53.946;27.634;2024-03-17T03:06:29;98527.734375;;;9.050000;68.545898
77517;BME280;68414;53.946;27.634;2024-03-17T03:07:29;98536.757812;;;9.100000;68.794922
77517;BME280;68414;53.946;27.634;2024-03-17T03:08:29;98532.492188;;;9.080000;68.860352
77517;BME280;68414;53.946;27.634;2024-03-17T03:09:29;98529.093750;;;9.170000;68.428711
77517;BME280;68414;53.946;27.634;2024-03-17T03:10:29;98529.890625;;;9.170000;68.242188
77517;BME280;68414;53.946;27.634;2024-03-17T03:11:29;98531.484375;;;9.180000;68.245117
77517;BME280;68414;53.946;27.634;2024-03-17T03:12:29;98527.093750;;;9.220000;68.106445
77517;BME280;68414;53.946;27.634;2024-03-17T03:13:29;98528.312500;;;9.160000;68.617188
77517;BME280;68414;53.946;27.634;2024-03-17T03:14:29;98500.390625;;;8.950000;68.583984
77517;BME280;68414;53.946;27.634;2024-03-17T03:15:30;98549.335938;;;9.230000;68.262695
77517;BME280;68414;53.946;27.634;2024-03-17T03:16:29;98530.953125;;;9.300000;68.073242
77517;BME280;68414;53.946;27.634;2024-03-17T03:17:29;98532.656250;;;9.260000;68.189453
77517;BME280;68414;53.946;27.634;2024-03-17T03:18:29;98530.273438;;;9.240000;68.441406
77517;BME280;68414;53.946;27.634;2024-03-17T03:19:29;98535.031250;;;9.270000;68.235352
77517;BME280;68414;53.946;27.634;2024-03-17T03:20:29;98539.593750;;;9.270000;68.390625
77517;BME280;68414;53.946;27.634;2024-03-17T03:21:29;98534.234375;;;9.270000;68.401367
77517;BME280;68414;53.946;27.634;2024-03-17T03:22:29;98538.015625;;;9.260000;68.610352
77517;BME280;68414;53.946;27.634;2024-03-17T03:23:29;98537.632812;;;9.190000;68.842773
77517;BME280;68414;53.946;27.634;2024-03-17T03:24:29;98537.515625;;;9.240000;68.816406
77517;BME280;68414;53.946;27.634;2024-03-17T03:25:29;98536.421875;;;9.250000;68.476562
77517;BME280;68414;53.946;27.634;2024-03-17T03:26:29;98534.046875;;;9.230000;68.739258
77517;BME280;68414;53.946;27.634;2024-03-17T03:27:29;98538.617188;;;9.230000;68.517578
77517;BME280;68414;53.946;27.634;2024-03-17T03:28:29;98533.367188;;;9.180000;68.830078
77517;BME280;68414;53.946;27.634;2024-03-17T03:29:29;98532.265625;;;9.190000;68.421875
77517;BME280;68414;53.946;27.634;2024-03-17T03:30:29;98522.757812;;;9.130000;69.064453
77517;BME280;68414;53.946;27.634;2024-03-17T03:31:29;98522.515625;;;9.000000;69.466797
77517;BME280;68414;53.946;27.634;2024-03-17T03:32:29;98525.843750;;;9.060000;69.751953
77517;BME280;68414;53.946;27.634;2024-03-17T03:33:29;98522.265625;;;9.110000;69.459961
77517;BME280;68414;53.946;27.634;2024-03-17T03:34:29;98520.078125;;;9.130000;68.865234
77517;BME280;68414;53.946;27.634;2024-03-17T03:35:29;98519.281250;;;9.120000;69.042969
77517;BME280;68414;53.946;27.634;2024-03-17T03:36:29;98522.265625;;;9.110000;69.604492
77517;BME280;68414;53.946;27.634;2024-03-17T03:37:29;98525.929688;;;9.150000;69.455078
77517;BME280;68414;53.946;27.634;2024-03-17T03:38:29;98520.156250;;;9.210000;69.211914
77517;BME280;68414;53.946;27.634;2024-03-17T03:39:30;98525.093750;;;9.280000;68.513672
77517;BME280;68414;53.946;27.634;2024-03-17T03:40:30;98529.359375;;;9.290000;68.581055
77517;BME280;68414;53.946;27.634;2024-03-17T03:41:29;98521.320312;;;9.290000;68.692383
77517;BME280;68414;53.946;27.634;2024-03-17T03:42:29;98535.632812;;;9.240000;69.094727
77517;BME280;68414;53.946;27.634;2024-03-17T03:43:29;98529.859375;;;9.310000;68.530273
77517;BME280;68414;53.946;27.634;2024-03-17T03:44:29;98532.046875;;;9.290000;68.703125
77517;BME280;68414;53.946;27.634;2024-03-17T03:45:29;98527.289062;;;9.260000;68.954102
77517;BME280;68414;53.946;27.634;2024-03-17T03:46:29;98530.078125;;;9.210000;69.079102
77517;BME280;68414;53.946;27.634;2024-03-17T03:47:29;98528.796875;;;9.180000;69.340820
77517;BME280;68414;53.946;27.634;2024-03-17T03:48:31;98530.273438;;;9.240000;69.316406
77517;BME280;68414;53.946;27.634;2024-03-17T03:49:29;98528.078125;;;9.260000;69.296875
77517;BME280;68414;53.946;27.634;2024-03-17T03:50:29;98535.031250;;;9.270000;68.833008
77517;BME280;68414;53.946;27.634;2024-03-17T03:51:30;98529.250000;;;9.340000;68.964844
77517;BME280;68414;53.946;27.634;2024-03-17T03:52:29;98525.937500;;;9.370000;68.084961
77517;BME280;68414;53.946;27.634;2024-03-17T03:53:30;98526.875000;;;9.320000;68.665039
77517;BME280;68414;53.946;27.634;2024-03-17T03:54:29;98530.648438;;;9.310000;68.851562
77517;BME280;68414;53.946;27.634;2024-03-17T03:55:29;98525.468750;;;9.350000;68.813477
77517;BME280;68414;53.946;27.634;2024-03-17T03:56:29;98524.835938;;;9.380000;68.019531
77517;BME280;68414;53.946;27.634;2024-03-17T03:57:29;98527.703125;;;9.410000;68.524414
77517;BME280;68414;53.946;27.634;2024-03-17T03:58:29;98528.007812;;;9.400000;68.310547
77517;BME280;68414;53.946;27.634;2024-03-17T03:59:29;98526.914062;;;9.410000;68.600586
77517;BME280;68414;53.946;27.634;2024-03-17T04:00:29;98520.453125;;;9.420000;68.468750
77517;BME280;68414;53.946;27.634;2024-03-17T04:01:29;98517.164062;;;9.450000;68.308594
77517;BME280;68414;53.946;27.634;2024-03-17T04:02:29;98521.859375;;;9.390000;67.756836
77517;BME280;68414;53.946;27.634;2024-03-17T04:03:29;98524.234375;;;9.410000;68.456055
77517;BME280;68414;53.946;27.634;2024-03-17T04:04:28;98522.156250;;;9.160000;70.033203
77517;BME280;68414;53.946;27.634;2024-03-17T04:05:29;98525.328125;;;9.180000;69.615234
77517;BME280;68414;53.946;27.634;2024-03-17T04:06:29;98526.906250;;;9.190000;69.627930
77517;BME280;68414;53.946;27.634;2024-03-17T04:07:29;98526.007812;;;9.230000;69.214844
77517;BME280;68414;53.946;27.634;2024-03-17T04:08:29;98531.554688;;;9.270000;69.342773
77517;BME280;68414;53.946;27.634;2024-03-17T04:09:29;98527.406250;;;9.210000;69.145508
77517;BME280;68414;53.946;27.634;2024-03-17T04:10:29;98526.906250;;;9.190000;69.351562
77517;BME280;68414;53.946;27.634;2024-03-17T04:11:29;98523.742188;;;9.170000;69.480469
77517;BME280;68414;53.946;27.634;2024-03-17T04:12:29;98522.039062;;;9.210000;69.643555
77517;BME280;68414;53.946;27.634;2024-03-17T04:13:29;98526.125000;;;9.180000;69.395508
77517;BME280;68414;53.946;27.634;2024-03-17T04:14:29;98521.734375;;;9.220000;69.733398
77517;BME280;68414;53.946;27.634;2024-03-17T04:15:29;98524.117188;;;9.240000;69.491211
77517;BME280;68414;53.946;27.634;2024-03-17T04:16:29;98514.984375;;;9.250000;69.217773
77517;BME280;68414;53.946;27.634;2024-03-17T04:17:29;98514.375000;;;9.280000;69.123047
77517;BME280;68414;53.946;27.634;2024-03-17T04:18:28;98522.640625;;;9.180000;69.106445
77517;BME280;68414;53.946;27.634;2024-03-17T04:19:28;98518.984375;;;9.140000;70.083984
77517;BME280;68414;53.946;27.634;2024-03-17T04:20:29;98514.609375;;;9.180000;69.958984
77517;BME280;68414;53.946;27.634;2024-03-17T04:21:29;98521.250000;;;9.200000;69.763672
77517;BME280;68414;53.946;27.634;2024-03-17T04:22:29;98522.234375;;;9.240000;69.625977
77517;BME280;68414;53.946;27.634;2024-03-17T04:23:29;98515.960938;;;9.290000;69.511719
77517;BME280;68414;53.946;27.634;2024-03-17T04:24:29;98516.750000;;;9.290000;69.234375
77517;BME280;68414;53.946;27.634;2024-03-17T04:25:29;98522.906250;;;9.300000;69.091797
77517;BME280;68414;53.946;27.634;2024-03-17T04:26:29;98526.796875;;;9.240000;68.694336
77517;BME280;68414;53.946;27.634;2024-03-17T04:27:29;98516.375000;;;9.220000;69.457031
77517;BME280;68414;53.946;27.634;2024-03-17T04:28:29;98517.171875;;;9.230000;69.613281
77517;BME280;68414;53.946;27.634;2024-03-17T04:29:29;98526.500000;;;9.250000;69.616211
77517;BME280;68414;53.946;27.634;2024-03-17T04:30:29;98512.296875;;;9.250000;69.373047
77517;BME280;68414;53.946;27.634;2024-03-17T04:31:29;98523.625000;;;9.220000;69.909180
77517;BME280;68414;53.946;27.634;2024-03-17T04:32:29;98516.375000;;;9.220000;69.911133
77517;BME280;68414;53.946;27.634;2024-03-17T04:33:28;98518.757812;;;9.240000;69.779297
77517;BME280;68414;53.946;27.634;2024-03-17T04:34:28;98519.359375;;;9.210000;69.654297
77517;BME280;68414;53.946;27.634;2024-03-17T04:35:28;98516.187500;;;9.190000;69.606445